createdAt,value
2018-12-09T00:00:12.112Z,99124.28
2018-12-09T00:02:40.341Z,99217.64
2018-12-09T00:05:08.676Z,99139.39
2018-12-09T00:07:36.895Z,99083.05
2018-12-09T00:10:05.671Z,99091.94
2018-12-09T00:12:33.869Z,99107.87
2018-12-09T00:15:02.057Z,99104.90
2018-12-09T00:17:30.168Z,99108.55
2018-12-09T00:19:58.288Z,99098.72
2018-12-09T00:22:26.449Z,99112.05
2018-12-09T00:24:54.649Z,99114.05
2018-12-09T00:27:22.796Z,99119.02
2018-12-09T00:29:50.944Z,99122.14
2018-12-09T00:32:19.193Z,99112.02
2018-12-09T00:34:47.349Z,99124.52
2018-12-09T00:37:15.605Z,99105.49
2018-12-09T00:39:43.757Z,99104.19
2018-12-09T00:42:11.929Z,99110.81
2018-12-09T00:44:40.080Z,99100.30
2018-12-09T00:47:08.279Z,99111.68
2018-12-09T00:49:36.572Z,99121.75
2018-12-09T00:52:04.919Z,99118.65
2018-12-09T00:54:33.092Z,99119.18
2018-12-09T00:57:01.390Z,99118.25
2018-12-09T00:59:29.658Z,99113.81
2018-12-09T01:01:57.976Z,99126.81
2018-12-09T01:22:53.372Z,99141.56
2018-12-09T01:25:21.635Z,99139.27
2018-12-09T01:27:50.060Z,99116.91
2018-12-09T01:30:18.301Z,99145.52
2018-12-09T01:32:46.657Z,99132.89
2018-12-09T01:35:14.964Z,99137.03
2018-12-09T01:37:43.243Z,99138.19
2018-12-09T01:40:11.398Z,99130.94
2018-12-09T01:42:39.672Z,99166.64
2018-12-09T01:45:08.182Z,99152.85
2018-12-09T01:47:36.635Z,99150.56
2018-12-09T01:50:05.653Z,99148.12
2018-12-09T01:52:34.021Z,99184.28
2018-12-09T01:55:02.293Z,99157.48
2018-12-09T01:57:30.613Z,99161.58
2018-12-09T01:59:58.845Z,99148.13
2018-12-09T02:02:27.233Z,99154.21
2018-12-09T02:04:55.453Z,99180.04
2018-12-09T02:07:23.975Z,99162.11
2018-12-09T02:09:52.493Z,99159.96
2018-12-09T02:12:20.761Z,99167.67
2018-12-09T02:14:48.997Z,99157.96
2018-12-09T02:17:17.436Z,99184.91
2018-12-09T02:19:45.969Z,99176.19
2018-12-09T02:22:14.250Z,99185.93
2018-12-09T02:24:42.516Z,99188.71
2018-12-09T02:27:10.797Z,99202.16
2018-12-09T02:29:39.187Z,99192.47
2018-12-09T02:32:08.101Z,99183.45
2018-12-09T02:34:36.409Z,99176.38
2018-12-09T02:37:04.727Z,99180.67
2018-12-09T02:39:32.983Z,99189.84
2018-12-09T02:42:01.279Z,99195.59
2018-12-09T02:44:29.537Z,99200.66
2018-12-09T02:46:57.840Z,99211.52
2018-12-09T02:49:26.094Z,99182.92
2018-12-09T02:51:54.321Z,99198.55
2018-12-09T02:54:22.846Z,99196.27
2018-12-09T02:56:51.142Z,99182.28
2018-12-09T02:59:19.411Z,99186.04
2018-12-09T03:01:47.672Z,99179.76
2018-12-09T03:04:16.192Z,99178.59
2018-12-09T03:06:44.439Z,99195.35
2018-12-09T03:09:12.848Z,99179.56
2018-12-09T03:11:41.094Z,99185.80
2018-12-09T03:14:09.313Z,99201.30
2018-12-09T03:16:37.544Z,99200.80
2018-12-09T03:19:05.944Z,99229.55
2018-12-09T03:21:34.296Z,99230.52
2018-12-09T03:24:02.510Z,99279.37
2018-12-09T03:26:30.896Z,99224.95
2018-12-09T03:28:59.425Z,99249.54
2018-12-09T03:31:27.717Z,99257.33
2018-12-09T03:33:55.982Z,99247.22
2018-12-09T03:36:24.279Z,99269.58
2018-12-09T03:38:52.541Z,99288.17
2018-12-09T03:41:20.822Z,99266.14
2018-12-09T03:43:49.007Z,99277.91
2018-12-09T03:46:17.322Z,99273.61
2018-12-09T03:48:45.641Z,99250.30
2018-12-09T03:51:13.922Z,99261.45
2018-12-09T03:53:42.189Z,99265.32
2018-12-09T03:56:10.406Z,99243.94
2018-12-09T03:58:39.407Z,99240.28
2018-12-09T04:01:07.942Z,99217.41
2018-12-09T04:03:36.614Z,99209.34
2018-12-09T04:06:05.033Z,99211.96
2018-12-09T04:08:33.278Z,99222.94
2018-12-09T04:11:01.567Z,99247.39
2018-12-09T04:13:29.853Z,99247.97
2018-12-09T04:15:58.293Z,99237.61
2018-12-09T04:18:26.616Z,99237.06
2018-12-09T04:20:54.925Z,99240.64
2018-12-09T04:23:23.862Z,99232.98
2018-12-09T04:25:52.142Z,99257.08
2018-12-09T04:28:20.424Z,99248.86
2018-12-09T04:30:48.692Z,99236.58
2018-12-09T04:33:17.034Z,99245.76
2018-12-09T04:35:45.441Z,99248.86
2018-12-09T04:38:13.668Z,99234.30
2018-12-09T04:40:41.974Z,99254.19
2018-12-09T04:43:10.276Z,99253.05
2018-12-09T04:45:39.066Z,99245.73
2018-12-09T04:48:07.284Z,99249.53
2018-12-09T04:50:35.821Z,99250.22
2018-12-09T04:53:04.097Z,99244.91
2018-12-09T04:55:32.485Z,99249.50
2018-12-09T04:58:00.749Z,99249.23
2018-12-09T05:00:40.220Z,99261.11
2018-12-09T05:03:08.554Z,99271.33
2018-12-09T05:05:36.749Z,99267.73
2018-12-09T05:08:05.018Z,99268.43
2018-12-09T05:10:33.397Z,99260.42
2018-12-09T05:13:02.015Z,99271.41
2018-12-09T05:15:30.253Z,99264.49
2018-12-09T05:17:58.468Z,99280.59
2018-12-09T05:20:26.828Z,99278.28
2018-12-09T05:22:55.096Z,99281.59
2018-12-09T05:25:23.484Z,99291.61
2018-12-09T05:27:51.690Z,99285.19
2018-12-09T05:30:20.152Z,99284.36
2018-12-09T05:32:48.416Z,99287.67
2018-12-09T05:35:16.789Z,99298.39
2018-12-09T05:37:45.167Z,99304.67
2018-12-09T05:40:13.719Z,99305.64
2018-12-09T05:42:42.133Z,99312.20
2018-12-09T05:45:10.481Z,99324.30
2018-12-09T05:47:39.091Z,99334.89
2018-12-09T05:50:07.540Z,99330.95
2018-12-09T05:52:35.839Z,99329.77
2018-12-09T05:55:05.000Z,99309.25
2018-12-09T05:57:33.212Z,99321.89
2018-12-09T06:00:01.743Z,99318.78
2018-12-09T06:02:41.258Z,99336.55
2018-12-09T06:05:09.531Z,99329.50
2018-12-09T06:07:37.717Z,99333.09
2018-12-09T06:10:06.684Z,99348.14
2018-12-09T06:12:34.937Z,99339.78
2018-12-09T06:15:03.349Z,99345.03
2018-12-09T06:17:32.170Z,99348.97
2018-12-09T06:20:00.393Z,99349.94
2018-12-09T06:22:29.361Z,99348.97
2018-12-09T06:24:57.670Z,99333.09
2018-12-09T06:27:25.929Z,99342.56
2018-12-09T06:29:54.158Z,99338.48
2018-12-09T06:32:22.401Z,99343.60
2018-12-09T06:34:50.670Z,99358.88
2018-12-09T06:37:18.928Z,99340.63
2018-12-09T06:39:47.233Z,99350.55
2018-12-09T06:42:16.249Z,99349.10
2018-12-09T06:44:44.570Z,99351.86
2018-12-09T06:47:12.806Z,99352.58
2018-12-09T06:49:41.121Z,99358.31
2018-12-09T06:52:09.336Z,99366.67
2018-12-09T06:54:37.557Z,99362.59
2018-12-09T06:57:06.046Z,99360.19
2018-12-09T06:59:34.489Z,99364.65
2018-12-09T07:02:02.720Z,99375.78
2018-12-09T07:04:30.982Z,99361.96
2018-12-09T07:06:59.193Z,99374.33
2018-12-09T07:09:27.403Z,99380.11
2018-12-09T07:11:55.821Z,99374.86
2018-12-09T07:14:24.075Z,99364.08
2018-12-09T07:16:52.238Z,99384.95
2018-12-09T07:19:20.706Z,99387.58
2018-12-09T07:21:49.390Z,99399.74
2018-12-09T07:24:17.716Z,99419.17
2018-12-09T07:26:45.917Z,99394.08
2018-12-09T07:29:14.149Z,99403.75
2018-12-09T07:31:42.953Z,99420.55
2018-12-09T07:34:11.210Z,99406.77
2018-12-09T07:36:39.488Z,99408.78
2018-12-09T07:39:08.762Z,99422.95
2018-12-09T07:41:37.071Z,99437.98
2018-12-09T07:44:05.352Z,99439.65
2018-12-09T07:46:33.617Z,99439.52
2018-12-09T07:49:02.000Z,99447.73
2018-12-09T07:51:30.220Z,99447.95
2018-12-09T07:53:58.432Z,99462.41
2018-12-09T07:56:26.623Z,99459.95
2018-12-09T07:58:54.792Z,99460.52
2018-12-09T08:01:23.006Z,99448.41
2018-12-09T08:03:51.357Z,99463.91
2018-12-09T08:06:19.517Z,99489.97
2018-12-09T08:08:47.800Z,99465.70
2018-12-09T08:11:16.083Z,99472.27
2018-12-09T08:13:44.325Z,99484.38
2018-12-09T08:16:12.568Z,99476.63
2018-12-09T08:18:40.724Z,99479.73
2018-12-09T08:21:09.572Z,99482.23
2018-12-09T08:23:37.865Z,99486.30
2018-12-09T08:26:06.036Z,99488.66
2018-12-09T08:28:34.328Z,99487.69
2018-12-09T08:31:02.569Z,99492.60
2018-12-09T08:33:30.724Z,99497.72
2018-12-09T08:36:00.016Z,99490.05
2018-12-09T08:38:28.244Z,99495.66
2018-12-09T08:40:56.401Z,99502.22
2018-12-09T08:43:24.885Z,99492.02
2018-12-09T08:45:53.149Z,99506.20
2018-12-09T08:48:21.428Z,99516.09
2018-12-09T08:50:49.708Z,99500.05
2018-12-09T08:53:17.984Z,99512.44
2018-12-09T08:55:46.202Z,99511.61
2018-12-09T08:58:14.346Z,99529.52
2018-12-09T09:00:42.752Z,99513.62
2018-12-09T09:03:10.894Z,99515.90
2018-12-09T09:05:39.181Z,99507.66
2018-12-09T09:08:07.386Z,99519.15
2018-12-09T09:10:35.542Z,99522.26
2018-12-09T09:13:04.094Z,99525.09
2018-12-09T09:15:32.340Z,99529.31
2018-12-09T09:18:00.533Z,99528.97
2018-12-09T09:20:28.818Z,99529.94
2018-12-09T09:25:49.932Z,99539.97
2018-12-09T09:28:18.110Z,99545.09
2018-12-09T09:30:46.292Z,99536.72
2018-12-09T09:33:14.477Z,99540.52
2018-12-09T09:35:42.617Z,99545.83
2018-12-09T09:38:58.845Z,99548.31
2018-12-09T09:41:27.851Z,99553.65
2018-12-09T09:43:56.721Z,99543.00
2018-12-09T09:46:25.613Z,99546.80
2018-12-09T09:48:54.622Z,99554.20
2018-12-09T09:51:23.456Z,99555.52
2018-12-09T09:53:52.316Z,99558.16
2018-12-09T09:56:21.825Z,99558.84
2018-12-09T09:58:50.671Z,99570.33
2018-12-09T10:01:19.580Z,99554.90
2018-12-09T10:03:48.503Z,99577.73
2018-12-09T10:06:17.563Z,99577.25
2018-12-09T10:08:46.600Z,99555.73
2018-12-09T10:11:15.436Z,99562.17
2018-12-09T10:13:44.330Z,99551.83
2018-12-09T10:16:13.142Z,99567.13
2018-12-09T10:18:42.013Z,99566.84
2018-12-09T10:21:10.897Z,99578.06
2018-12-09T10:23:40.808Z,99564.91
2018-12-09T10:26:09.627Z,99565.60
2018-12-09T10:28:38.497Z,99584.02
2018-12-09T10:31:08.297Z,99558.41
2018-12-09T10:33:37.144Z,99572.39
2018-12-09T10:36:06.046Z,99574.67
2018-12-09T10:38:34.853Z,99562.35
2018-12-09T10:41:03.786Z,99584.02
2018-12-09T10:43:32.701Z,99572.52
2018-12-09T10:46:01.538Z,99574.19
2018-12-09T10:48:30.436Z,99571.91
2018-12-09T10:50:59.941Z,99577.30
2018-12-09T10:53:28.825Z,99562.70
2018-12-09T10:55:57.629Z,99568.66
2018-12-09T10:58:26.710Z,99571.95
2018-12-09T11:02:00.801Z,99574.58
2018-12-09T11:04:30.741Z,99586.41
2018-12-09T11:06:59.582Z,99570.98
2018-12-09T11:09:28.432Z,99568.34
2018-12-09T11:11:57.321Z,99596.45
2018-12-09T11:14:26.153Z,99587.72
2018-12-09T11:16:55.110Z,99590.36
2018-12-09T11:19:23.971Z,99576.41
2018-12-09T11:21:52.868Z,99591.05
2018-12-09T11:24:21.769Z,99589.11
2018-12-09T11:26:50.665Z,99601.30
2018-12-09T11:29:19.536Z,99592.44
2018-12-09T11:31:48.445Z,99599.22
2018-12-09T11:34:17.253Z,99606.28
2018-12-09T11:36:46.238Z,99600.81
2018-12-09T11:39:15.116Z,99609.61
2018-12-09T11:41:43.972Z,99611.06
2018-12-09T11:44:12.790Z,99607.59
2018-12-09T11:46:41.592Z,99617.22
2018-12-09T11:49:10.465Z,99617.77
2018-12-09T11:51:39.473Z,99608.91
2018-12-09T11:54:08.469Z,99619.44
2018-12-09T11:56:37.337Z,99618.88
2018-12-09T11:59:06.161Z,99614.45
2018-12-09T12:01:35.129Z,99620.48
2018-12-09T12:04:04.115Z,99633.36
2018-12-09T12:06:33.519Z,99615.60
2018-12-09T12:09:02.561Z,99627.23
2018-12-09T12:11:31.502Z,99624.64
2018-12-09T12:14:00.312Z,99634.17
2018-12-09T12:16:29.265Z,99632.23
2018-12-09T12:18:58.183Z,99639.44
2018-12-09T12:21:26.989Z,99637.94
2018-12-09T12:23:56.001Z,99660.14
2018-12-09T12:26:24.892Z,99645.84
2018-12-09T12:28:54.039Z,99650.13
2018-12-09T12:31:22.942Z,99663.18
2018-12-09T12:33:51.844Z,99680.48
2018-12-09T12:36:20.751Z,99718.43
2018-12-09T12:38:49.566Z,99728.97
2018-12-09T12:41:19.205Z,99729.98
2018-12-09T12:46:44.648Z,99722.32
2018-12-09T12:49:13.949Z,99720.01
2018-12-09T12:51:43.040Z,99719.08
2018-12-09T12:54:12.028Z,99721.83
2018-12-09T12:56:40.929Z,99729.70
2018-12-09T12:59:09.896Z,99742.09
2018-12-09T13:01:38.808Z,99740.38
2018-12-09T13:04:07.697Z,99743.70
2018-12-09T13:06:36.620Z,99756.63
2018-12-09T13:09:07.625Z,99771.55
2018-12-09T13:11:36.513Z,99759.98
2018-12-09T13:14:05.558Z,99767.03
2018-12-09T13:16:34.400Z,99771.45
2018-12-09T13:19:03.423Z,99773.82
2018-12-09T13:21:32.338Z,99778.11
2018-12-09T13:24:01.750Z,99779.50
2018-12-09T13:26:30.769Z,99788.91
2018-12-09T13:28:59.592Z,99799.65
2018-12-09T13:31:28.448Z,99797.38
2018-12-09T13:33:58.385Z,99798.69
2018-12-09T13:36:27.235Z,99805.96
2018-12-09T13:38:56.098Z,99816.81
2018-12-09T13:41:24.921Z,99819.32
2018-12-09T13:43:54.665Z,99817.25
2018-12-09T13:46:23.504Z,99826.55
2018-12-09T13:48:52.409Z,99833.21
2018-12-09T13:51:21.294Z,99844.78
2018-12-09T13:53:52.218Z,99844.50
2018-12-09T13:56:21.356Z,99852.96
2018-12-09T13:58:50.203Z,99860.47
2018-12-09T14:01:20.157Z,99864.51
2018-12-09T14:03:49.006Z,99876.05
2018-12-09T14:06:17.861Z,99869.70
2018-12-09T14:08:46.676Z,99882.50
2018-12-09T14:11:15.556Z,99895.51
2018-12-09T14:13:44.421Z,99892.53
2018-12-09T14:16:13.399Z,99906.86
2018-12-09T14:18:46.954Z,99919.87
2018-12-09T14:21:15.877Z,99919.27
2018-12-09T14:23:44.806Z,99928.66
2018-12-09T14:26:13.735Z,99936.06
2018-12-09T14:28:42.560Z,99947.77
2018-12-09T14:31:11.533Z,99953.73
2018-12-09T14:33:40.429Z,99963.66
2018-12-09T14:36:09.432Z,99961.51
2018-12-09T14:38:38.325Z,99969.03
2018-12-09T14:41:07.324Z,99975.28
2018-12-09T14:43:36.146Z,99976.31
2018-12-09T14:46:05.026Z,99990.77
2018-12-09T14:48:33.889Z,99986.47
2018-12-09T14:51:02.761Z,100003.91
2018-12-09T14:53:31.701Z,100001.41
2018-12-09T14:56:00.556Z,100010.05
2018-12-09T14:58:29.454Z,100016.49
2018-12-09T15:00:58.444Z,100025.21
2018-12-09T15:03:27.329Z,100028.44
2018-12-09T15:05:56.214Z,100031.91
2018-12-09T15:08:25.118Z,100040.27
2018-12-09T15:10:54.077Z,100049.70
2018-12-09T15:13:22.953Z,100059.62
2018-12-09T15:15:52.005Z,100056.98
2018-12-09T15:18:20.868Z,100061.53
2018-12-09T15:20:49.756Z,100083.39
2018-12-09T15:23:18.665Z,100088.64
2018-12-09T15:25:47.653Z,100095.09
2018-12-09T15:28:16.478Z,100088.88
2018-12-09T15:30:45.661Z,100094.22
2018-12-09T15:33:14.545Z,100096.84
2018-12-09T15:35:43.534Z,100113.57
2018-12-09T15:38:12.666Z,100130.17
2018-12-09T15:40:41.530Z,100134.95
2018-12-09T15:43:10.516Z,100138.33
2018-12-09T15:45:39.354Z,100153.63
2018-12-09T15:48:08.277Z,100159.12
2018-12-09T15:50:37.154Z,100158.86
2018-12-09T15:53:06.049Z,100157.41
2018-12-09T15:55:34.940Z,100164.43
2018-12-09T15:58:03.794Z,100160.74
2018-12-09T16:00:38.086Z,100176.51
2018-12-09T16:03:07.276Z,100174.23
2018-12-09T16:05:36.149Z,100185.37
2018-12-09T16:08:04.976Z,100187.50
2018-12-09T16:10:33.902Z,100201.71
2018-12-09T16:13:02.869Z,100202.68
2018-12-09T16:15:31.719Z,100203.73
2018-12-09T16:18:00.695Z,100211.14
2018-12-09T16:20:29.693Z,100222.47
2018-12-09T16:22:58.705Z,100226.77
2018-12-09T16:25:27.905Z,100232.75
2018-12-09T16:27:56.952Z,100236.33
2018-12-09T16:30:26.836Z,100232.97
2018-12-09T16:32:55.697Z,100243.48
2018-12-09T16:35:25.093Z,100251.72
2018-12-09T16:37:53.969Z,100268.78
2018-12-09T16:40:22.870Z,100273.31
2018-12-09T16:42:51.756Z,100278.33
2018-12-09T16:48:23.850Z,100291.69
2018-12-09T16:50:52.717Z,100295.41
2018-12-09T16:53:21.536Z,100309.95
2018-12-09T16:55:50.513Z,100310.18
2018-12-09T16:58:19.410Z,100319.63
2018-12-09T17:00:48.285Z,100333.81
2018-12-09T17:03:17.203Z,100341.09
2018-12-09T17:05:46.480Z,100347.55
2018-12-09T17:08:15.404Z,100356.63
2018-12-09T17:10:44.259Z,100365.45
2018-12-09T17:13:13.153Z,100374.64
2018-12-09T17:15:42.046Z,100390.88
2018-12-09T17:18:10.931Z,100391.81
2018-12-09T17:20:39.834Z,100387.15
2018-12-09T17:23:08.710Z,100385.73
2018-12-09T17:25:37.661Z,100393.60
2018-12-09T17:28:06.720Z,100401.84
2018-12-09T17:30:35.664Z,100408.62
2018-12-09T17:33:04.786Z,100425.00
2018-12-09T17:35:33.616Z,100426.78
2018-12-09T17:38:02.461Z,100438.23
2018-12-09T17:40:31.355Z,100446.11
2018-12-09T17:43:00.236Z,100453.98
2018-12-09T17:45:29.253Z,100455.92
2018-12-09T17:47:58.129Z,100470.59
2018-12-09T17:50:27.245Z,100470.84
2018-12-09T17:52:56.092Z,100481.34
2018-12-09T17:55:25.006Z,100490.44
2018-12-09T17:57:53.825Z,100495.58
2018-12-09T18:00:22.807Z,100504.51
2018-12-09T18:02:51.664Z,100494.48
2018-12-09T18:05:21.500Z,100505.82
2018-12-09T18:07:50.481Z,100509.39
2018-12-09T18:10:19.391Z,100527.19
2018-12-09T18:12:48.436Z,100533.28
2018-12-09T18:15:20.045Z,100526.25
2018-12-09T18:17:49.130Z,100532.70
2018-12-09T18:20:18.045Z,100540.80
2018-12-09T18:22:47.982Z,100549.98
2018-12-09T18:25:16.928Z,100559.16
2018-12-09T18:27:45.982Z,100564.88
2018-12-09T18:30:14.893Z,100568.47
2018-12-09T18:32:43.908Z,100578.72
2018-12-09T18:35:12.881Z,100601.64
2018-12-09T18:37:41.764Z,100610.56
2018-12-09T18:40:10.230Z,100622.02
2018-12-09T18:42:39.555Z,100617.55
2018-12-09T18:45:09.327Z,100626.10
2018-12-09T18:47:38.148Z,100631.22
2018-12-09T18:50:07.361Z,100640.78
2018-12-09T18:52:36.240Z,100643.27
2018-12-09T18:55:06.308Z,100659.39
2018-12-09T18:57:35.369Z,100656.19
2018-12-09T19:00:04.636Z,100662.28
2018-12-09T19:02:33.572Z,100665.17
2018-12-09T19:05:02.633Z,100668.73
2018-12-09T19:07:31.988Z,100684.39
2018-12-09T19:10:02.286Z,100681.23
2018-12-09T19:12:31.311Z,100697.92
2018-12-09T19:15:00.297Z,100699.00
2018-12-09T19:17:29.248Z,100703.64
2018-12-09T19:19:58.127Z,100716.63
2018-12-09T19:22:27.149Z,100723.77
2018-12-09T19:24:55.998Z,100715.89
2018-12-09T19:27:24.896Z,100717.58
2018-12-09T19:29:53.800Z,100723.94
2018-12-09T19:32:24.765Z,100732.32
2018-12-09T19:34:53.628Z,100740.47
2018-12-09T19:37:22.509Z,100744.20
2018-12-09T19:39:51.368Z,100756.02
2018-12-09T19:42:20.322Z,100769.72
2018-12-09T19:44:49.558Z,100782.17
2018-12-09T19:47:18.477Z,100764.94
2018-12-09T19:49:47.385Z,100769.44
2018-12-09T19:52:16.290Z,100768.33
2018-12-09T19:54:45.158Z,100775.13
2018-12-09T19:57:14.144Z,100778.32
2018-12-09T19:59:43.865Z,100779.83
2018-12-09T20:02:12.860Z,100784.34
2018-12-09T20:04:41.742Z,100796.72
2018-12-09T20:07:10.646Z,100804.69
2018-12-09T20:09:39.526Z,100807.69
2018-12-09T20:12:08.439Z,100809.73
2018-12-09T20:14:38.536Z,100815.83
2018-12-09T20:17:07.468Z,100811.42
2018-12-09T20:19:37.449Z,100813.58
2018-12-09T20:22:06.292Z,100821.83
2018-12-09T20:24:35.264Z,100818.36
2018-12-09T20:27:04.251Z,100828.39
2018-12-09T20:29:34.225Z,100830.27
2018-12-09T20:32:03.105Z,100836.18
2018-12-09T20:34:32.044Z,100831.62
2018-12-09T20:37:00.997Z,100842.59
2018-12-09T20:39:29.820Z,100835.48
2018-12-09T20:41:58.694Z,100850.02
2018-12-09T20:44:27.553Z,100855.83
2018-12-09T20:46:56.518Z,100858.08
2018-12-09T20:49:25.451Z,100865.02
2018-12-09T20:51:54.583Z,100862.39
2018-12-09T20:54:23.397Z,100869.32
2018-12-09T20:56:52.658Z,100874.37
2018-12-09T20:59:21.527Z,100879.44
2018-12-09T21:01:50.408Z,100894.44
2018-12-09T21:04:20.221Z,100882.62
2018-12-09T21:06:49.221Z,100894.11
2018-12-09T21:09:18.110Z,100885.25
2018-12-09T21:11:47.015Z,100888.44
2018-12-09T21:14:15.884Z,100898.09
2018-12-09T21:16:45.545Z,100902.13
2018-12-09T21:19:14.407Z,100905.96
2018-12-09T21:21:43.378Z,100918.62
2018-12-09T21:24:12.392Z,100925.92
2018-12-09T21:26:41.334Z,100922.17
2018-12-09T21:29:10.287Z,100923.86
2018-12-09T21:31:39.140Z,100929.11
2018-12-09T21:34:07.993Z,100947.95
2018-12-09T21:36:37.037Z,100948.89
2018-12-09T21:39:07.488Z,100943.55
2018-12-09T21:41:38.393Z,100968.94
2018-12-09T21:44:08.632Z,100955.35
2018-12-09T21:46:37.496Z,100962.29
2018-12-09T21:49:06.429Z,100962.95
2018-12-09T21:51:35.329Z,100969.88
2018-12-09T21:54:04.602Z,100980.47
2018-12-09T21:56:33.493Z,100981.03
2018-12-09T21:59:02.373Z,100974.47
2018-12-09T22:01:31.264Z,100988.53
2018-12-09T22:04:01.064Z,100985.91
2018-12-09T22:06:30.073Z,100989.30
2018-12-09T22:08:58.949Z,100995.49
2018-12-09T22:11:27.965Z,101010.77
2018-12-09T22:13:57.257Z,100999.14
2018-12-09T22:16:26.149Z,101004.02
2018-12-09T22:18:55.197Z,101000.73
2018-12-09T22:21:24.122Z,101013.94
2018-12-09T22:23:53.018Z,101011.78
2018-12-09T22:26:21.900Z,101023.20
2018-12-09T22:28:50.794Z,101024.91
2018-12-09T22:31:19.684Z,101030.16
2018-12-09T22:33:48.580Z,101030.53
2018-12-09T22:36:17.591Z,101038.03
2018-12-09T22:38:46.452Z,101051.44
2018-12-09T22:41:15.325Z,101053.59
2018-12-09T22:43:44.193Z,101057.90
2018-12-09T22:46:13.030Z,101064.45
2018-12-09T22:48:41.900Z,101063.31
2018-12-09T22:51:10.932Z,101068.00
2018-12-09T22:53:39.797Z,101065.76
2018-12-09T22:56:08.623Z,101075.70
2018-12-09T22:58:37.581Z,101084.03
2018-12-09T23:01:12.105Z,101080.86
2018-12-09T23:03:41.010Z,101091.17
2018-12-09T23:06:09.849Z,101102.98
2018-12-09T23:08:38.869Z,101112.08
2018-12-09T23:11:07.761Z,101106.91
2018-12-09T23:13:36.594Z,101109.16
2018-12-09T23:16:05.725Z,101116.56
2018-12-09T23:18:34.641Z,101107.30
2018-12-09T23:21:03.528Z,101120.41
2018-12-09T23:23:32.820Z,101124.81
2018-12-09T23:26:00.913Z,101135.31
2018-12-09T23:28:29.802Z,101139.50
2018-12-09T23:30:59.952Z,101139.63
2018-12-09T23:33:28.816Z,101141.87
2018-12-09T23:35:57.709Z,101139.42
2018-12-09T23:38:26.581Z,101140.56
2018-12-09T23:40:55.464Z,101148.05
2018-12-09T23:43:24.293Z,101156.30
2018-12-09T23:45:53.249Z,101144.50
2018-12-09T23:48:22.136Z,101151.98
2018-12-09T23:50:51.024Z,101151.98
2018-12-09T23:53:19.953Z,101152.92
2018-12-09T23:55:48.805Z,101156.02
2018-12-09T23:58:17.709Z,101164.35
